sensor_id;sensor_type;location;lat;lon;timestamp;temperature;humidity
3727;DHT22;1879;45.876;12.300;2023-06-24T00:01:21;22.60;99.90
3727;DHT22;1879;45.876;12.300;2023-06-24T00:03:48;22.60;99.90
3727;DHT22;1879;45.876;12.300;2023-06-24T00:06:18;22.60;99.90
3727;DHT22;1879;45.876;12.300;2023-06-24T00:08:46;22.60;99.90
3727;DHT22;1879;45.876;12.300;2023-06-24T00:11:13;22.60;99.90
3727;DHT22;1879;45.876;12.300;2023-06-24T00:13:40;22.60;99.90
3727;DHT22;1879;45.876;12.300;2023-06-24T00:16:08;22.70;99.90
3727;DHT22;1879;45.876;12.300;2023-06-24T00:18:37;22.70;99.90
3727;DHT22;1879;45.876;12.300;2023-06-24T00:21:06;22.70;99.90
3727;DHT22;1879;45.876;12.300;2023-06-24T00:23:34;22.70;99.90
3727;DHT22;1879;45.876;12.300;2023-06-24T00:26:01;22.70;99.90
3727;DHT22;1879;45.876;12.300;2023-06-24T00:28:29;22.70;99.90
3727;DHT22;1879;45.876;12.300;2023-06-24T00:30:56;22.70;99.90
3727;DHT22;1879;45.876;12.300;2023-06-24T00:33:22;22.60;99.90
3727;DHT22;1879;45.876;12.300;2023-06-24T00:35:51;22.50;99.90
3727;DHT22;1879;45.876;12.300;2023-06-24T00:38:18;22.40;99.90
3727;DHT22;1879;45.876;12.300;2023-06-24T00:40:45;22.30;99.90
3727;DHT22;1879;45.876;12.300;2023-06-24T00:43:12;22.30;99.90
3727;DHT22;1879;45.876;12.300;2023-06-24T00:45:40;22.30;99.90
3727;DHT22;1879;45.876;12.300;2023-06-24T00:48:06;22.20;99.90
3727;DHT22;1879;45.876;12.300;2023-06-24T00:50:33;22.10;99.90
3727;DHT22;1879;45.876;12.300;2023-06-24T00:53:04;22.00;99.90
3727;DHT22;1879;45.876;12.300;2023-06-24T00:55:31;21.90;99.90
3727;DHT22;1879;45.876;12.300;2023-06-24T00:58:01;21.90;99.90
3727;DHT22;1879;45.876;12.300;2023-06-24T01:00:28;22.00;99.90
3727;DHT22;1879;45.876;12.300;2023-06-24T01:02:55;22.00;99.90
3727;DHT22;1879;45.876;12.300;2023-06-24T01:05:23;22.00;99.90
3727;DHT22;1879;45.876;12.300;2023-06-24T01:07:51;22.00;99.90
3727;DHT22;1879;45.876;12.300;2023-06-24T01:10:23;21.90;99.90
3727;DHT22;1879;45.876;12.300;2023-06-24T01:12:50;21.90;99.90
3727;DHT22;1879;45.876;12.300;2023-06-24T01:15:18;21.90;99.90
3727;DHT22;1879;45.876;12.300;2023-06-24T01:17:54;21.90;99.90
3727;DHT22;1879;45.876;12.300;2023-06-24T01:20:25;21.80;99.20
3727;DHT22;1879;45.876;12.300;2023-06-24T01:26:20;21.80;99.70
3727;DHT22;1879;45.876;12.300;2023-06-24T01:29:17;21.70;99.00
3727;DHT22;1879;45.876;12.300;2023-06-24T01:31:52;21.70;98.80
3727;DHT22;1879;45.876;12.300;2023-06-24T01:34:27;21.60;98.30
3727;DHT22;1879;45.876;12.300;2023-06-24T01:37:03;21.50;98.10
3727;DHT22;1879;45.876;12.300;2023-06-24T01:39:34;21.40;97.20
3727;DHT22;1879;45.876;12.300;2023-06-24T01:42:08;21.40;97.70
3727;DHT22;1879;45.876;12.300;2023-06-24T01:44:38;21.40;97.60
3727;DHT22;1879;45.876;12.300;2023-06-24T01:47:10;21.30;97.50
3727;DHT22;1879;45.876;12.300;2023-06-24T01:49:40;21.30;97.40
3727;DHT22;1879;45.876;12.300;2023-06-24T01:52:08;21.40;97.40
3727;DHT22;1879;45.876;12.300;2023-06-24T01:54:37;21.40;97.60
3727;DHT22;1879;45.876;12.300;2023-06-24T01:57:07;21.30;97.60
3727;DHT22;1879;45.876;12.300;2023-06-24T01:59:37;21.20;98.00
3727;DHT22;1879;45.876;12.300;2023-06-24T02:02:09;21.20;98.10
3727;DHT22;1879;45.876;12.300;2023-06-24T02:04:38;21.10;98.00
3727;DHT22;1879;45.876;12.300;2023-06-24T02:07:07;21.00;98.00
3727;DHT22;1879;45.876;12.300;2023-06-24T02:09:35;20.90;98.00
3727;DHT22;1879;45.876;12.300;2023-06-24T02:12:03;20.80;98.10
3727;DHT22;1879;45.876;12.300;2023-06-24T02:14:31;20.70;97.90
3727;DHT22;1879;45.876;12.300;2023-06-24T02:17:01;20.60;97.90
3727;DHT22;1879;45.876;12.300;2023-06-24T02:19:31;20.50;98.10
3727;DHT22;1879;45.876;12.300;2023-06-24T02:21:59;20.50;98.00
3727;DHT22;1879;45.876;12.300;2023-06-24T02:24:27;20.40;98.10
3727;DHT22;1879;45.876;12.300;2023-06-24T02:26:56;20.50;98.10
3727;DHT22;1879;45.876;12.300;2023-06-24T02:29:26;20.50;98.00
3727;DHT22;1879;45.876;12.300;2023-06-24T02:31:54;20.60;98.10
3727;DHT22;1879;45.876;12.300;2023-06-24T02:34:23;20.60;98.00
3727;DHT22;1879;45.876;12.300;2023-06-24T02:36:53;20.60;98.20
3727;DHT22;1879;45.876;12.300;2023-06-24T02:39:21;20.60;98.20
3727;DHT22;1879;45.876;12.300;2023-06-24T02:41:48;20.50;98.20
3727;DHT22;1879;45.876;12.300;2023-06-24T02:44:16;20.50;98.20
3727;DHT22;1879;45.876;12.300;2023-06-24T02:46:43;20.40;97.80
3727;DHT22;1879;45.876;12.300;2023-06-24T02:49:14;20.40;97.60
3727;DHT22;1879;45.876;12.300;2023-06-24T02:51:43;20.40;97.70
3727;DHT22;1879;45.876;12.300;2023-06-24T02:54:13;20.30;97.80
3727;DHT22;1879;45.876;12.300;2023-06-24T02:56:42;20.20;97.90
3727;DHT22;1879;45.876;12.300;2023-06-24T02:59:10;20.20;98.00
3727;DHT22;1879;45.876;12.300;2023-06-24T03:01:38;20.20;98.20
3727;DHT22;1879;45.876;12.300;2023-06-24T03:04:11;20.20;98.20
3727;DHT22;1879;45.876;12.300;2023-06-24T03:06:38;20.30;98.60
3727;DHT22;1879;45.876;12.300;2023-06-24T03:09:06;20.30;98.60
3727;DHT22;1879;45.876;12.300;2023-06-24T03:11:41;20.30;98.70
3727;DHT22;1879;45.876;12.300;2023-06-24T03:14:08;20.40;98.70
3727;DHT22;1879;45.876;12.300;2023-06-24T03:16:36;20.40;98.70
3727;DHT22;1879;45.876;12.300;2023-06-24T03:19:03;20.50;98.60
3727;DHT22;1879;45.876;12.300;2023-06-24T03:21:31;20.60;98.60
3727;DHT22;1879;45.876;12.300;2023-06-24T03:23:58;20.60;98.60
3727;DHT22;1879;45.876;12.300;2023-06-24T03:26:30;20.60;98.50
3727;DHT22;1879;45.876;12.300;2023-06-24T03:28:59;20.60;98.50
3727;DHT22;1879;45.876;12.300;2023-06-24T03:31:26;20.60;98.40
3727;DHT22;1879;45.876;12.300;2023-06-24T03:33:53;20.60;98.60
3727;DHT22;1879;45.876;12.300;2023-06-24T03:36:20;20.60;98.80
3727;DHT22;1879;45.876;12.300;2023-06-24T03:38:47;20.50;98.90
3727;DHT22;1879;45.876;12.300;2023-06-24T03:41:14;20.50;99.10
3727;DHT22;1879;45.876;12.300;2023-06-24T03:43:42;20.50;99.10
3727;DHT22;1879;45.876;12.300;2023-06-24T03:46:12;20.40;99.10
3727;DHT22;1879;45.876;12.300;2023-06-24T03:48:40;20.30;99.10
3727;DHT22;1879;45.876;12.300;2023-06-24T03:51:07;20.40;99.00
3727;DHT22;1879;45.876;12.300;2023-06-24T03:53:34;20.40;99.10
3727;DHT22;1879;45.876;12.300;2023-06-24T03:56:01;20.40;98.80
3727;DHT22;1879;45.876;12.300;2023-06-24T03:58:28;20.40;98.80
3727;DHT22;1879;45.876;12.300;2023-06-24T04:00:55;20.50;98.70
3727;DHT22;1879;45.876;12.300;2023-06-24T04:03:25;20.50;98.60
3727;DHT22;1879;45.876;12.300;2023-06-24T04:05:54;20.60;98.60
3727;DHT22;1879;45.876;12.300;2023-06-24T04:08:21;20.60;98.60
3727;DHT22;1879;45.876;12.300;2023-06-24T04:10:48;20.60;98.30
3727;DHT22;1879;45.876;12.300;2023-06-24T04:13:15;20.60;98.50
3727;DHT22;1879;45.876;12.300;2023-06-24T04:15:42;20.60;98.00
3727;DHT22;1879;45.876;12.300;2023-06-24T04:18:09;20.60;97.80
3727;DHT22;1879;45.876;12.300;2023-06-24T04:20:37;20.70;97.80
3727;DHT22;1879;45.876;12.300;2023-06-24T04:23:04;20.80;97.70
3727;DHT22;1879;45.876;12.300;2023-06-24T04:25:34;20.80;97.80
3727;DHT22;1879;45.876;12.300;2023-06-24T04:28:01;20.80;97.80
3727;DHT22;1879;45.876;12.300;2023-06-24T04:30:30;20.80;97.90
3727;DHT22;1879;45.876;12.300;2023-06-24T04:32:57;20.90;98.10
3727;DHT22;1879;45.876;12.300;2023-06-24T04:35:24;20.90;98.20
3727;DHT22;1879;45.876;12.300;2023-06-24T04:37:53;20.90;98.40
3727;DHT22;1879;45.876;12.300;2023-06-24T04:40:20;21.00;98.70
3727;DHT22;1879;45.876;12.300;2023-06-24T04:42:47;21.10;98.30
3727;DHT22;1879;45.876;12.300;2023-06-24T04:45:14;21.10;98.40
3727;DHT22;1879;45.876;12.300;2023-06-24T04:47:41;21.20;98.70
3727;DHT22;1879;45.876;12.300;2023-06-24T04:50:09;21.30;98.60
3727;DHT22;1879;45.876;12.300;2023-06-24T04:52:37;21.30;98.50
3727;DHT22;1879;45.876;12.300;2023-06-24T04:55:07;21.40;98.30
3727;DHT22;1879;45.876;12.300;2023-06-24T04:57:34;21.50;98.40
3727;DHT22;1879;45.876;12.300;2023-06-24T05:00:01;21.60;98.50
3727;DHT22;1879;45.876;12.300;2023-06-24T05:02:28;21.70;98.50
3727;DHT22;1879;45.876;12.300;2023-06-24T05:04:55;21.80;98.60
3727;DHT22;1879;45.876;12.300;2023-06-24T05:07:22;21.90;98.70
3727;DHT22;1879;45.876;12.300;2023-06-24T05:09:49;21.90;98.00
3727;DHT22;1879;45.876;12.300;2023-06-24T05:12:18;22.00;98.00
3727;DHT22;1879;45.876;12.300;2023-06-24T05:14:49;22.10;97.50
3727;DHT22;1879;45.876;12.300;2023-06-24T05:17:17;22.30;97.30
3727;DHT22;1879;45.876;12.300;2023-06-24T05:19:44;22.50;97.10
3727;DHT22;1879;45.876;12.300;2023-06-24T05:22:11;22.60;96.70
3727;DHT22;1879;45.876;12.300;2023-06-24T05:24:38;22.70;96.20
3727;DHT22;1879;45.876;12.300;2023-06-24T05:27:07;22.90;95.80
3727;DHT22;1879;45.876;12.300;2023-06-24T05:29:35;23.00;94.90
3727;DHT22;1879;45.876;12.300;2023-06-24T05:32:03;23.20;94.80
3727;DHT22;1879;45.876;12.300;2023-06-24T05:34:33;23.20;94.80
3727;DHT22;1879;45.876;12.300;2023-06-24T05:37:00;23.30;94.40
3727;DHT22;1879;45.876;12.300;2023-06-24T05:39:27;23.40;94.40
3727;DHT22;1879;45.876;12.300;2023-06-24T05:41:54;23.50;94.30
3727;DHT22;1879;45.876;12.300;2023-06-24T05:44:21;23.50;94.00
3727;DHT22;1879;45.876;12.300;2023-06-24T05:46:50;23.60;94.10
3727;DHT22;1879;45.876;12.300;2023-06-24T05:49:17;23.60;94.10
3727;DHT22;1879;45.876;12.300;2023-06-24T05:51:44;23.70;93.90
3727;DHT22;1879;45.876;12.300;2023-06-24T05:54:11;23.80;92.30
3727;DHT22;1879;45.876;12.300;2023-06-24T05:56:38;23.90;92.40
3727;DHT22;1879;45.876;12.300;2023-06-24T05:59:05;24.00;92.30
3727;DHT22;1879;45.876;12.300;2023-06-24T06:01:32;24.00;92.00
3727;DHT22;1879;45.876;12.300;2023-06-24T06:04:00;24.10;91.80
3727;DHT22;1879;45.876;12.300;2023-06-24T06:06:27;24.20;91.70
3727;DHT22;1879;45.876;12.300;2023-06-24T06:08:54;24.20;90.20
3727;DHT22;1879;45.876;12.300;2023-06-24T06:11:21;24.20;87.70
3727;DHT22;1879;45.876;12.300;2023-06-24T06:13:48;24.30;89.60
3727;DHT22;1879;45.876;12.300;2023-06-24T06:16:15;24.30;88.50
3727;DHT22;1879;45.876;12.300;2023-06-24T06:18:42;24.40;90.40
3727;DHT22;1879;45.876;12.300;2023-06-24T06:21:10;24.50;89.90
3727;DHT22;1879;45.876;12.300;2023-06-24T06:23:37;24.50;90.10
3727;DHT22;1879;45.876;12.300;2023-06-24T06:26:05;24.60;90.70
3727;DHT22;1879;45.876;12.300;2023-06-24T06:28:32;24.60;90.20
3727;DHT22;1879;45.876;12.300;2023-06-24T06:30:59;24.60;90.30
3727;DHT22;1879;45.876;12.300;2023-06-24T06:33:26;24.70;89.40
3727;DHT22;1879;45.876;12.300;2023-06-24T06:35:53;24.70;88.30
3727;DHT22;1879;45.876;12.300;2023-06-24T06:38:21;24.80;88.00
3727;DHT22;1879;45.876;12.300;2023-06-24T06:40:49;24.80;86.00
3727;DHT22;1879;45.876;12.300;2023-06-24T06:43:16;24.90;86.30
3727;DHT22;1879;45.876;12.300;2023-06-24T06:45:43;24.90;87.50
3727;DHT22;1879;45.876;12.300;2023-06-24T06:48:10;24.90;87.80
3727;DHT22;1879;45.876;12.300;2023-06-24T06:50:37;25.00;87.40
3727;DHT22;1879;45.876;12.300;2023-06-24T06:53:04;25.00;89.00
3727;DHT22;1879;45.876;12.300;2023-06-24T06:55:32;25.10;88.10
3727;DHT22;1879;45.876;12.300;2023-06-24T06:57:59;25.10;88.60
3727;DHT22;1879;45.876;12.300;2023-06-24T07:00:26;25.20;86.80
3727;DHT22;1879;45.876;12.300;2023-06-24T07:02:53;25.30;85.80
3727;DHT22;1879;45.876;12.300;2023-06-24T07:05:20;25.40;84.50
3727;DHT22;1879;45.876;12.300;2023-06-24T07:07:47;25.40;83.50
3727;DHT22;1879;45.876;12.300;2023-06-24T07:10:15;25.50;83.50
3727;DHT22;1879;45.876;12.300;2023-06-24T07:12:44;25.50;82.10
3727;DHT22;1879;45.876;12.300;2023-06-24T07:15:11;25.40;82.90
3727;DHT22;1879;45.876;12.300;2023-06-24T07:17:38;25.40;82.60
3727;DHT22;1879;45.876;12.300;2023-06-24T07:20:06;25.20;81.90
3727;DHT22;1879;45.876;12.300;2023-06-24T07:22:33;25.10;82.50
3727;DHT22;1879;45.876;12.300;2023-06-24T07:25:00;25.20;81.20
3727;DHT22;1879;45.876;12.300;2023-06-24T07:27:27;25.20;81.30
3727;DHT22;1879;45.876;12.300;2023-06-24T07:29:55;25.40;81.90
3727;DHT22;1879;45.876;12.300;2023-06-24T07:32:22;25.50;82.70
3727;DHT22;1879;45.876;12.300;2023-06-24T07:34:49;25.70;84.10
3727;DHT22;1879;45.876;12.300;2023-06-24T07:37:16;25.80;84.50
3727;DHT22;1879;45.876;12.300;2023-06-24T07:39:43;26.00;84.90
3727;DHT22;1879;45.876;12.300;2023-06-24T07:42:10;26.20;86.60
3727;DHT22;1879;45.876;12.300;2023-06-24T07:44:37;26.30;87.80
3727;DHT22;1879;45.876;12.300;2023-06-24T07:47:06;26.40;88.00
3727;DHT22;1879;45.876;12.300;2023-06-24T07:49:33;26.60;87.10
3727;DHT22;1879;45.876;12.300;2023-06-24T07:52:00;26.80;84.90
3727;DHT22;1879;45.876;12.300;2023-06-24T07:54:27;27.10;86.00
3727;DHT22;1879;45.876;12.300;2023-06-24T07:56:54;27.50;86.40
3727;DHT22;1879;45.876;12.300;2023-06-24T07:59:21;27.60;82.60
3727;DHT22;1879;45.876;12.300;2023-06-24T08:01:49;27.60;84.60
3727;DHT22;1879;45.876;12.300;2023-06-24T08:04:17;27.60;82.80
3727;DHT22;1879;45.876;12.300;2023-06-24T08:06:44;27.50;83.30
3727;DHT22;1879;45.876;12.300;2023-06-24T08:09:11;27.60;83.30
3727;DHT22;1879;45.876;12.300;2023-06-24T08:11:38;27.80;82.80
3727;DHT22;1879;45.876;12.300;2023-06-24T08:14:05;27.90;82.80
3727;DHT22;1879;45.876;12.300;2023-06-24T08:16:32;28.00;79.50
3727;DHT22;1879;45.876;12.300;2023-06-24T08:18:59;28.10;81.20
3727;DHT22;1879;45.876;12.300;2023-06-24T08:21:28;28.10;78.30
3727;DHT22;1879;45.876;12.300;2023-06-24T08:23:55;28.10;75.80
3727;DHT22;1879;45.876;12.300;2023-06-24T08:26:22;28.20;77.40
3727;DHT22;1879;45.876;12.300;2023-06-24T08:28:49;28.20;77.50
3727;DHT22;1879;45.876;12.300;2023-06-24T08:31:16;28.30;76.00
3727;DHT22;1879;45.876;12.300;2023-06-24T08:33:44;28.20;75.40
3727;DHT22;1879;45.876;12.300;2023-06-24T08:36:11;28.30;74.70
3727;DHT22;1879;45.876;12.300;2023-06-24T08:38:40;28.30;73.70
3727;DHT22;1879;45.876;12.300;2023-06-24T08:41:07;28.40;72.40
3727;DHT22;1879;45.876;12.300;2023-06-24T08:43:34;28.60;72.70
3727;DHT22;1879;45.876;12.300;2023-06-24T08:46:01;28.60;72.40
3727;DHT22;1879;45.876;12.300;2023-06-24T08:48:30;28.60;73.30
3727;DHT22;1879;45.876;12.300;2023-06-24T08:51:07;28.70;72.10
3727;DHT22;1879;45.876;12.300;2023-06-24T08:53:34;28.70;71.90
3727;DHT22;1879;45.876;12.300;2023-06-24T08:56:05;28.60;75.70
3727;DHT22;1879;45.876;12.300;2023-06-24T08:58:32;28.50;71.00
3727;DHT22;1879;45.876;12.300;2023-06-24T09:01:00;28.40;74.00
3727;DHT22;1879;45.876;12.300;2023-06-24T09:03:27;28.60;75.70
3727;DHT22;1879;45.876;12.300;2023-06-24T09:05:54;28.70;74.70
3727;DHT22;1879;45.876;12.300;2023-06-24T09:08:21;28.90;73.50
3727;DHT22;1879;45.876;12.300;2023-06-24T09:10:53;29.00;71.60
3727;DHT22;1879;45.876;12.300;2023-06-24T09:13:27;29.00;71.20
3727;DHT22;1879;45.876;12.300;2023-06-24T09:16:00;29.10;71.80
3727;DHT22;1879;45.876;12.300;2023-06-24T09:18:36;29.20;70.90
3727;DHT22;1879;45.876;12.300;2023-06-24T09:21:03;29.30;72.20
3727;DHT22;1879;45.876;12.300;2023-06-24T09:23:35;29.30;71.40
3727;DHT22;1879;45.876;12.300;2023-06-24T09:26:02;29.30;70.10
3727;DHT22;1879;45.876;12.300;2023-06-24T09:28:31;29.20;72.30
3727;DHT22;1879;45.876;12.300;2023-06-24T09:31:06;29.10;71.70
3727;DHT22;1879;45.876;12.300;2023-06-24T09:33:34;28.90;69.10
3727;DHT22;1879;45.876;12.300;2023-06-24T09:36:02;28.80;69.90
3727;DHT22;1879;45.876;12.300;2023-06-24T09:38:34;28.80;69.90
3727;DHT22;1879;45.876;12.300;2023-06-24T09:41:05;29.00;69.80
3727;DHT22;1879;45.876;12.300;2023-06-24T09:43:35;29.20;70.30
3727;DHT22;1879;45.876;12.300;2023-06-24T09:46:03;29.30;72.00
3727;DHT22;1879;45.876;12.300;2023-06-24T09:48:30;29.30;70.40
3727;DHT22;1879;45.876;12.300;2023-06-24T09:51:00;29.40;69.60
3727;DHT22;1879;45.876;12.300;2023-06-24T09:53:30;29.60;69.70
3727;DHT22;1879;45.876;12.300;2023-06-24T09:55:58;29.70;70.60
3727;DHT22;1879;45.876;12.300;2023-06-24T09:58:26;29.90;68.80
3727;DHT22;1879;45.876;12.300;2023-06-24T10:00:57;30.20;68.40
3727;DHT22;1879;45.876;12.300;2023-06-24T10:03:28;30.50;67.80
3727;DHT22;1879;45.876;12.300;2023-06-24T10:05:55;30.70;67.30
3727;DHT22;1879;45.876;12.300;2023-06-24T10:08:22;30.70;62.40
3727;DHT22;1879;45.876;12.300;2023-06-24T10:10:49;30.80;60.80
3727;DHT22;1879;45.876;12.300;2023-06-24T10:13:17;30.70;61.00
3727;DHT22;1879;45.876;12.300;2023-06-24T10:15:44;30.50;59.60
3727;DHT22;1879;45.876;12.300;2023-06-24T10:18:36;30.30;60.80
3727;DHT22;1879;45.876;12.300;2023-06-24T10:21:03;30.20;60.40
3727;DHT22;1879;45.876;12.300;2023-06-24T10:23:32;30.50;63.20
3727;DHT22;1879;45.876;12.300;2023-06-24T10:26:08;30.90;62.40
3727;DHT22;1879;45.876;12.300;2023-06-24T10:29:08;31.40;60.70
3727;DHT22;1879;45.876;12.300;2023-06-24T10:31:54;31.60;60.10
3727;DHT22;1879;45.876;12.300;2023-06-24T10:34:34;31.60;58.80
3727;DHT22;1879;45.876;12.300;2023-06-24T10:37:05;31.50;58.50
3727;DHT22;1879;45.876;12.300;2023-06-24T10:39:55;31.30;57.10
3727;DHT22;1879;45.876;12.300;2023-06-24T10:45:19;31.10;58.00
3727;DHT22;1879;45.876;12.300;2023-06-24T10:47:47;30.90;56.70
3727;DHT22;1879;45.876;12.300;2023-06-24T10:50:18;30.80;57.40
3727;DHT22;1879;45.876;12.300;2023-06-24T10:52:47;30.60;57.10
3727;DHT22;1879;45.876;12.300;2023-06-24T10:55:15;30.70;56.10
3727;DHT22;1879;45.876;12.300;2023-06-24T10:57:42;31.00;56.10
3727;DHT22;1879;45.876;12.300;2023-06-24T11:00:11;31.30;55.90
3727;DHT22;1879;45.876;12.300;2023-06-24T11:02:38;31.50;56.50
3727;DHT22;1879;45.876;12.300;2023-06-24T11:05:06;31.70;55.10
3727;DHT22;1879;45.876;12.300;2023-06-24T11:07:36;31.40;55.10
3727;DHT22;1879;45.876;12.300;2023-06-24T11:10:05;31.50;56.40
3727;DHT22;1879;45.876;12.300;2023-06-24T11:12:34;31.40;54.70
3727;DHT22;1879;45.876;12.300;2023-06-24T11:15:03;31.50;54.60
3727;DHT22;1879;45.876;12.300;2023-06-24T11:17:31;31.50;53.80
3727;DHT22;1879;45.876;12.300;2023-06-24T11:19:59;31.30;54.60
3727;DHT22;1879;45.876;12.300;2023-06-24T11:22:26;31.00;53.90
3727;DHT22;1879;45.876;12.300;2023-06-24T11:24:55;30.90;53.80
3727;DHT22;1879;45.876;12.300;2023-06-24T11:27:26;31.00;55.70
3727;DHT22;1879;45.876;12.300;2023-06-24T11:29:54;31.00;56.30
3727;DHT22;1879;45.876;12.300;2023-06-24T11:32:21;31.00;56.40
3727;DHT22;1879;45.876;12.300;2023-06-24T11:34:48;31.00;55.30
3727;DHT22;1879;45.876;12.300;2023-06-24T11:37:17;31.10;55.50
3727;DHT22;1879;45.876;12.300;2023-06-24T11:39:45;31.40;55.10
3727;DHT22;1879;45.876;12.300;2023-06-24T11:42:28;31.50;54.50
3727;DHT22;1879;45.876;12.300;2023-06-24T11:44:59;31.70;55.50
3727;DHT22;1879;45.876;12.300;2023-06-24T11:47:27;32.10;56.20
3727;DHT22;1879;45.876;12.300;2023-06-24T11:49:57;32.50;56.90
3727;DHT22;1879;45.876;12.300;2023-06-24T11:52:41;33.00;55.50
3727;DHT22;1879;45.876;12.300;2023-06-24T11:55:13;33.50;55.70
3727;DHT22;1879;45.876;12.300;2023-06-24T11:57:55;33.80;54.10
3727;DHT22;1879;45.876;12.300;2023-06-24T12:00:24;33.90;52.70
3727;DHT22;1879;45.876;12.300;2023-06-24T12:02:53;33.90;53.70
3727;DHT22;1879;45.876;12.300;2023-06-24T12:05:27;33.90;52.60
3727;DHT22;1879;45.876;12.300;2023-06-24T12:07:55;34.20;53.50
3727;DHT22;1879;45.876;12.300;2023-06-24T12:10:23;34.40;53.00
3727;DHT22;1879;45.876;12.300;2023-06-24T12:12:50;34.60;52.00
3727;DHT22;1879;45.876;12.300;2023-06-24T12:15:19;34.60;52.50
3727;DHT22;1879;45.876;12.300;2023-06-24T12:17:46;34.40;52.50
3727;DHT22;1879;45.876;12.300;2023-06-24T12:20:14;34.70;53.30
3727;DHT22;1879;45.876;12.300;2023-06-24T12:22:41;34.90;51.40
3727;DHT22;1879;45.876;12.300;2023-06-24T12:25:09;35.10;50.90
3727;DHT22;1879;45.876;12.300;2023-06-24T12:27:37;35.20;54.20
3727;DHT22;1879;45.876;12.300;2023-06-24T12:30:08;35.70;84.10
3727;DHT22;1879;45.876;12.300;2023-06-24T12:37:36;36.40;87.50
3727;DHT22;1879;45.876;12.300;2023-06-24T12:40:04;36.50;82.60
3727;DHT22;1879;45.876;12.300;2023-06-24T12:42:32;36.60;82.90
3727;DHT22;1879;45.876;12.300;2023-06-24T12:44:59;36.60;82.50
3727;DHT22;1879;45.876;12.300;2023-06-24T12:47:26;36.90;85.90
3727;DHT22;1879;45.876;12.300;2023-06-24T12:49:54;37.00;82.50
3727;DHT22;1879;45.876;12.300;2023-06-24T12:52:22;36.80;81.50
3727;DHT22;1879;45.876;12.300;2023-06-24T12:54:48;36.50;81.00
3727;DHT22;1879;45.876;12.300;2023-06-24T12:57:15;36.10;82.40
3727;DHT22;1879;45.876;12.300;2023-06-24T12:59:42;35.30;81.70
3727;DHT22;1879;45.876;12.300;2023-06-24T13:02:09;34.50;82.20
3727;DHT22;1879;45.876;12.300;2023-06-24T13:04:36;34.60;83.00
3727;DHT22;1879;45.876;12.300;2023-06-24T13:07:05;34.90;84.00
3727;DHT22;1879;45.876;12.300;2023-06-24T13:09:33;35.60;85.20
3727;DHT22;1879;45.876;12.300;2023-06-24T13:12:00;35.80;83.20
3727;DHT22;1879;45.876;12.300;2023-06-24T13:14:27;36.50;47.80
3727;DHT22;1879;45.876;12.300;2023-06-24T13:16:54;36.80;46.60
3727;DHT22;1879;45.876;12.300;2023-06-24T13:19:21;37.00;46.50
3727;DHT22;1879;45.876;12.300;2023-06-24T13:21:48;37.20;46.10
3727;DHT22;1879;45.876;12.300;2023-06-24T13:24:16;37.30;46.50
3727;DHT22;1879;45.876;12.300;2023-06-24T13:26:43;37.50;45.90
3727;DHT22;1879;45.876;12.300;2023-06-24T13:29:11;37.70;45.40
3727;DHT22;1879;45.876;12.300;2023-06-24T13:31:38;37.70;44.50
3727;DHT22;1879;45.876;12.300;2023-06-24T13:34:06;37.80;44.40
3727;DHT22;1879;45.876;12.300;2023-06-24T13:36:34;38.00;44.60
3727;DHT22;1879;45.876;12.300;2023-06-24T13:39:03;38.20;43.10
3727;DHT22;1879;45.876;12.300;2023-06-24T13:41:31;38.10;43.00
3727;DHT22;1879;45.876;12.300;2023-06-24T13:43:59;37.70;41.90
3727;DHT22;1879;45.876;12.300;2023-06-24T13:46:27;37.50;42.20
3727;DHT22;1879;45.876;12.300;2023-06-24T13:48:54;37.40;43.00
3727;DHT22;1879;45.876;12.300;2023-06-24T13:51:22;37.60;42.90
3727;DHT22;1879;45.876;12.300;2023-06-24T13:53:50;37.50;42.70
3727;DHT22;1879;45.876;12.300;2023-06-24T13:56:18;37.20;42.80
3727;DHT22;1879;45.876;12.300;2023-06-24T13:58:47;36.70;42.50
3727;DHT22;1879;45.876;12.300;2023-06-24T14:01:14;36.60;43.00
3727;DHT22;1879;45.876;12.300;2023-06-24T14:03:42;36.60;44.10
3727;DHT22;1879;45.876;12.300;2023-06-24T14:06:09;36.50;44.80
3727;DHT22;1879;45.876;12.300;2023-06-24T14:08:36;36.40;44.10
3727;DHT22;1879;45.876;12.300;2023-06-24T14:11:03;36.10;44.40
3727;DHT22;1879;45.876;12.300;2023-06-24T14:13:30;35.80;43.90
3727;DHT22;1879;45.876;12.300;2023-06-24T14:15:59;35.40;42.90
3727;DHT22;1879;45.876;12.300;2023-06-24T14:18:26;34.90;42.00
3727;DHT22;1879;45.876;12.300;2023-06-24T14:20:53;34.10;41.90
3727;DHT22;1879;45.876;12.300;2023-06-24T14:23:20;33.80;43.70
3727;DHT22;1879;45.876;12.300;2023-06-24T14:25:47;33.60;44.80
3727;DHT22;1879;45.876;12.300;2023-06-24T14:28:14;32.90;45.50
3727;DHT22;1879;45.876;12.300;2023-06-24T14:30:41;32.50;46.50
3727;DHT22;1879;45.876;12.300;2023-06-24T14:33:10;32.40;46.90
3727;DHT22;1879;45.876;12.300;2023-06-24T14:35:37;32.80;46.40
3727;DHT22;1879;45.876;12.300;2023-06-24T14:38:04;32.90;46.60
3727;DHT22;1879;45.876;12.300;2023-06-24T14:40:31;32.80;47.50
3727;DHT22;1879;45.876;12.300;2023-06-24T14:42:58;33.10;48.10
3727;DHT22;1879;45.876;12.300;2023-06-24T14:45:25;33.40;47.90
3727;DHT22;1879;45.876;12.300;2023-06-24T14:47:53;33.50;48.10
3727;DHT22;1879;45.876;12.300;2023-06-24T14:50:21;33.60;48.20
3727;DHT22;1879;45.876;12.300;2023-06-24T14:52:49;33.30;48.50
3727;DHT22;1879;45.876;12.300;2023-06-24T14:55:16;33.10;48.80
3727;DHT22;1879;45.876;12.300;2023-06-24T14:57:43;33.20;49.50
3727;DHT22;1879;45.876;12.300;2023-06-24T15:00:11;33.40;48.70
3727;DHT22;1879;45.876;12.300;2023-06-24T15:02:38;33.50;49.50
3727;DHT22;1879;45.876;12.300;2023-06-24T15:05:05;33.50;49.10
3727;DHT22;1879;45.876;12.300;2023-06-24T15:07:34;33.40;48.90
3727;DHT22;1879;45.876;12.300;2023-06-24T15:10:04;33.60;48.60
3727;DHT22;1879;45.876;12.300;2023-06-24T15:12:31;33.40;48.60
3727;DHT22;1879;45.876;12.300;2023-06-24T15:15:00;33.50;49.10
3727;DHT22;1879;45.876;12.300;2023-06-24T15:17:27;33.80;48.80
3727;DHT22;1879;45.876;12.300;2023-06-24T15:19:55;34.00;48.40
3727;DHT22;1879;45.876;12.300;2023-06-24T15:22:22;33.70;48.20
3727;DHT22;1879;45.876;12.300;2023-06-24T15:24:51;33.90;48.20
3727;DHT22;1879;45.876;12.300;2023-06-24T15:27:18;34.20;48.30
3727;DHT22;1879;45.876;12.300;2023-06-24T15:29:45;34.20;47.50
3727;DHT22;1879;45.876;12.300;2023-06-24T15:32:12;34.40;47.60
3727;DHT22;1879;45.876;12.300;2023-06-24T15:34:39;34.30;46.70
3727;DHT22;1879;45.876;12.300;2023-06-24T15:37:06;34.20;46.40
3727;DHT22;1879;45.876;12.300;2023-06-24T15:39:33;34.40;46.30
3727;DHT22;1879;45.876;12.300;2023-06-24T15:42:02;34.50;45.50
3727;DHT22;1879;45.876;12.300;2023-06-24T15:44:30;34.50;46.20
3727;DHT22;1879;45.876;12.300;2023-06-24T15:46:57;34.70;45.40
3727;DHT22;1879;45.876;12.300;2023-06-24T15:49:24;34.70;46.50
3727;DHT22;1879;45.876;12.300;2023-06-24T15:51:51;34.50;45.80
3727;DHT22;1879;45.876;12.300;2023-06-24T15:54:18;34.60;46.40
3727;DHT22;1879;45.876;12.300;2023-06-24T15:56:45;34.50;46.30
3727;DHT22;1879;45.876;12.300;2023-06-24T15:59:13;34.70;46.60
3727;DHT22;1879;45.876;12.300;2023-06-24T16:01:40;34.80;46.20
3727;DHT22;1879;45.876;12.300;2023-06-24T16:04:08;35.00;45.70